createdAt,value
2023-05-08T00:01:30.885Z,6.30
2023-05-08T00:05:34.028Z,5.72
2023-05-08T00:09:36.928Z,5.13
2023-05-08T00:13:41.285Z,5.72
2023-05-08T00:17:45.491Z,5.07
2023-05-08T00:21:48.269Z,5.15
2023-05-08T00:25:51.080Z,7.90
2023-05-08T00:29:53.912Z,4.75
2023-05-08T00:33:58.251Z,7.30
2023-05-08T00:38:01.633Z,7.85
2023-05-08T00:42:04.642Z,6.85
2023-05-08T00:46:09.627Z,5.18
2023-05-08T00:50:15.277Z,9.48
2023-05-08T00:54:18.552Z,5.60
2023-05-08T00:58:22.750Z,6.45
2023-05-08T01:02:25.863Z,6.88
2023-05-08T01:06:31.750Z,6.93
2023-05-08T01:10:47.858Z,6.68
2023-05-08T01:15:02.207Z,5.50
2023-05-08T01:19:15.578Z,6.25
2023-05-08T01:23:57.435Z,8.57
2023-05-08T01:28:17.032Z,5.65
2023-05-08T01:32:24.675Z,4.95
2023-05-08T01:36:35.661Z,5.75
2023-05-08T01:40:53.988Z,6.07
2023-05-08T01:45:01.137Z,7.38
2023-05-08T01:49:09.235Z,5.32
2023-05-08T01:53:20.475Z,5.10
2023-05-08T01:57:25.219Z,7.05
2023-05-08T02:01:30.197Z,7.13
2023-05-08T02:05:37.892Z,5.85
2023-05-08T02:09:42.288Z,7.05
2023-05-08T02:13:46.683Z,5.47
2023-05-08T02:17:51.393Z,5.53
2023-05-08T02:21:59.719Z,6.85
2023-05-08T02:26:04.595Z,5.22
2023-05-08T02:30:09.232Z,11.25
2023-05-08T02:34:13.617Z,6.32
2023-05-08T02:38:20.754Z,9.57
2023-05-08T02:42:23.650Z,6.97
2023-05-08T02:46:33.854Z,8.23
2023-05-08T02:50:42.671Z,11.07
2023-05-08T02:54:54.715Z,10.48
2023-05-08T02:59:04.391Z,11.90
2023-05-08T03:03:12.974Z,10.38
2023-05-08T03:07:17.081Z,16.77
2023-05-08T03:11:27.042Z,14.63
2023-05-08T03:15:36.210Z,15.75
2023-05-08T03:19:40.694Z,18.33
2023-05-08T03:23:44.375Z,19.42
2023-05-08T03:27:50.149Z,17.08
2023-05-08T03:31:54.030Z,16.10
2023-05-08T03:35:58.677Z,15.07
2023-05-08T03:40:02.414Z,18.98
2023-05-08T03:44:09.036Z,15.52
2023-05-08T03:48:12.725Z,15.05
2023-05-08T03:52:17.649Z,15.73
2023-05-08T03:56:21.056Z,14.98
2023-05-08T04:00:32.670Z,18.42
2023-05-08T04:04:40.668Z,12.43
2023-05-08T04:08:53.938Z,15.98
2023-05-08T04:13:06.510Z,17.95
2023-05-08T04:17:16.730Z,14.48
2023-05-08T04:21:24.169Z,12.15
2023-05-08T04:25:29.160Z,16.45
2023-05-08T04:29:34.029Z,14.90
2023-05-08T04:33:40.221Z,12.52
2023-05-08T04:37:43.792Z,17.05
2023-05-08T04:41:48.002Z,13.43
2023-05-08T04:45:51.115Z,16.08
2023-05-08T04:49:55.414Z,13.48
2023-05-08T04:53:58.282Z,12.10
2023-05-08T04:58:01.327Z,18.17
2023-05-08T05:02:06.079Z,11.55
2023-05-08T05:06:10.415Z,13.30
2023-05-08T05:10:13.245Z,13.32
2023-05-08T05:14:16.552Z,14.38
2023-05-08T05:18:19.433Z,15.60
2023-05-08T05:22:23.667Z,13.65
2023-05-08T05:26:26.478Z,14.82
2023-05-08T05:30:29.381Z,14.02
2023-05-08T05:34:32.344Z,13.32
2023-05-08T05:38:36.638Z,12.43
2023-05-08T05:42:40.560Z,13.10
2023-05-08T05:46:44.606Z,13.32
2023-05-08T05:50:48.018Z,12.52
2023-05-08T05:54:52.220Z,15.88
2023-05-08T05:58:55.033Z,14.27
2023-05-08T06:02:58.455Z,12.07
2023-05-08T06:07:01.409Z,16.92
2023-05-08T06:11:05.627Z,14.27
2023-05-08T06:15:09.862Z,12.95
2023-05-08T06:19:13.364Z,15.88
2023-05-08T06:23:16.203Z,11.90
2023-05-08T06:27:21.012Z,12.45
2023-05-08T06:31:23.921Z,15.00
2023-05-08T06:35:26.828Z,11.32
2023-05-08T06:39:29.571Z,13.68
2023-05-08T06:43:33.726Z,12.55
2023-05-08T06:47:36.668Z,12.95
2023-05-08T06:51:39.499Z,10.07
2023-05-08T06:55:44.166Z,15.30
2023-05-08T06:59:48.383Z,14.98
2023-05-08T07:03:51.283Z,18.20
2023-05-08T07:07:54.705Z,17.20
2023-05-08T07:11:57.493Z,16.42
2023-05-08T07:16:01.655Z,13.75
2023-05-08T07:20:05.274Z,16.70
2023-05-08T07:24:08.393Z,14.38
2023-05-08T07:28:14.501Z,13.60
2023-05-08T07:32:18.797Z,19.83
2023-05-08T07:36:22.763Z,15.52
2023-05-08T07:40:25.506Z,14.05
2023-05-08T07:44:28.274Z,19.50
2023-05-08T07:48:32.437Z,15.23
2023-05-08T07:52:35.238Z,18.23
2023-05-08T07:56:38.008Z,15.43
2023-05-08T08:00:41.143Z,17.27
2023-05-08T08:04:45.642Z,13.77
2023-05-08T08:08:48.430Z,16.55
2023-05-08T08:12:51.339Z,14.77
2023-05-08T08:16:54.196Z,12.43
2023-05-08T08:20:58.380Z,19.35
2023-05-08T08:25:01.220Z,14.55
2023-05-08T08:29:04.491Z,18.50
2023-05-08T08:33:07.378Z,12.98
2023-05-08T08:37:13.986Z,15.88
2023-05-08T08:41:16.848Z,17.02
2023-05-08T08:45:19.681Z,14.90
2023-05-08T08:49:29.606Z,15.60
2023-05-08T08:53:37.869Z,13.65
2023-05-08T08:57:44.452Z,18.33
2023-05-08T09:01:51.380Z,16.00
2023-05-08T09:05:54.911Z,16.45
2023-05-08T09:09:59.834Z,13.90
2023-05-08T09:14:03.465Z,14.05
2023-05-08T09:18:07.039Z,16.27
2023-05-08T09:22:10.776Z,16.20
2023-05-08T09:26:28.158Z,18.20
2023-05-08T09:30:30.968Z,12.52
2023-05-08T09:34:35.120Z,14.32
2023-05-08T09:38:39.289Z,13.25
2023-05-08T09:42:43.882Z,18.88
2023-05-08T09:46:49.582Z,13.73
2023-05-08T09:51:07.267Z,14.02
2023-05-08T09:55:11.989Z,14.65
2023-05-08T09:59:27.239Z,16.95
2023-05-08T10:03:48.333Z,16.02
2023-05-08T10:07:51.321Z,19.33
2023-05-08T10:11:55.592Z,20.35
2023-05-08T10:16:00.118Z,12.43
2023-05-08T10:20:08.401Z,13.40
2023-05-08T10:24:16.000Z,14.25
2023-05-08T10:28:25.217Z,13.85
2023-05-08T10:32:32.540Z,14.25
2023-05-08T10:36:37.133Z,14.70
2023-05-08T10:40:39.952Z,17.80
2023-05-08T10:44:42.860Z,14.77
2023-05-08T10:48:55.384Z,17.17
2023-05-08T10:53:03.489Z,19.48
2023-05-08T10:57:10.625Z,16.63
2023-05-08T11:01:15.959Z,17.55
2023-05-08T11:05:20.964Z,19.30
2023-05-08T11:09:28.027Z,18.08
2023-05-08T11:13:34.558Z,18.27
2023-05-08T11:17:37.578Z,17.15
2023-05-08T11:22:29.113Z,23.52
2023-05-08T11:26:40.570Z,20.52
2023-05-08T11:30:45.537Z,17.23
2023-05-08T11:34:50.425Z,17.27
2023-05-08T11:39:10.848Z,18.45
2023-05-08T11:43:49.705Z,17.60
2023-05-08T11:48:02.847Z,16.98
2023-05-08T11:52:06.547Z,18.85
2023-05-08T11:56:10.833Z,18.52
2023-05-08T12:00:14.858Z,17.85
2023-05-08T12:04:18.084Z,17.23
2023-05-08T12:08:21.087Z,18.80
2023-05-08T12:12:25.289Z,13.98
2023-05-08T12:16:28.169Z,16.00
2023-05-08T12:20:32.615Z,17.40
2023-05-08T12:24:36.570Z,18.67
2023-05-08T12:28:40.822Z,15.82
2023-05-08T12:32:44.934Z,18.17
2023-05-08T12:36:47.729Z,13.60
2023-05-08T12:40:52.904Z,14.73
2023-05-08T12:44:58.501Z,18.73
2023-05-08T12:49:07.203Z,10.90
2023-05-08T12:53:11.507Z,19.55
2023-05-08T12:57:15.104Z,11.73
2023-05-08T13:01:20.799Z,14.98
2023-05-08T13:05:24.569Z,22.65
2023-05-08T13:09:27.417Z,13.82
2023-05-08T13:13:32.165Z,13.75
2023-05-08T13:17:36.394Z,14.98
2023-05-08T13:21:39.208Z,14.18
2023-05-08T13:25:42.575Z,15.07
2023-05-08T13:29:45.431Z,20.90
2023-05-08T13:33:49.559Z,14.60
2023-05-08T13:37:52.523Z,16.70
2023-05-08T13:41:55.291Z,14.45
2023-05-08T13:45:58.421Z,15.60
2023-05-08T13:50:02.933Z,17.80
2023-05-08T13:54:05.771Z,13.57
2023-05-08T13:58:08.666Z,18.02
2023-05-08T14:02:11.628Z,21.88
2023-05-08T14:06:15.898Z,17.65
2023-05-08T14:10:18.855Z,17.63
2023-05-08T14:14:21.682Z,16.30
2023-05-08T14:18:24.422Z,22.08
2023-05-08T14:22:28.682Z,17.15
2023-05-08T14:26:31.481Z,16.08
2023-05-08T14:30:34.303Z,17.33
2023-05-08T14:34:37.076Z,14.45
2023-05-08T14:38:41.454Z,28.70
2023-05-08T14:42:44.253Z,19.45
2023-05-08T14:46:47.750Z,14.70
2023-05-08T14:50:51.860Z,13.23
2023-05-08T14:54:56.113Z,13.32
2023-05-08T14:58:58.975Z,9.98
2023-05-08T15:03:01.914Z,15.35
2023-05-08T15:07:05.348Z,14.70
2023-05-08T15:11:09.546Z,13.55
2023-05-08T15:15:12.520Z,14.43
2023-05-08T15:19:15.451Z,10.30
2023-05-08T15:23:20.265Z,11.48
2023-05-08T15:27:24.391Z,9.25
2023-05-08T15:31:27.234Z,12.15
2023-05-08T15:35:30.147Z,14.15
2023-05-08T15:39:35.988Z,14.13
2023-05-08T15:43:40.173Z,12.43
2023-05-08T15:47:43.024Z,16.67
2023-05-08T15:51:45.793Z,13.68
2023-05-08T15:55:48.697Z,18.80
2023-05-08T15:59:52.862Z,16.73
2023-05-08T16:03:55.711Z,16.52
2023-05-08T16:07:58.499Z,15.77
2023-05-08T16:12:01.343Z,18.95
2023-05-08T16:16:06.403Z,18.48
2023-05-08T16:20:11.790Z,16.38
2023-05-08T16:24:14.688Z,22.58
2023-05-08T16:28:40.221Z,19.00
2023-05-08T16:32:45.600Z,17.23
2023-05-08T16:36:48.445Z,18.02
2023-05-08T16:40:51.237Z,18.10
2023-05-08T16:44:53.999Z,16.23
2023-05-08T16:48:58.184Z,12.02
2023-05-08T16:53:01.079Z,13.82
2023-05-08T16:57:04.659Z,13.13
2023-05-08T17:01:12.154Z,14.95
2023-05-08T17:05:17.796Z,15.23
2023-05-08T17:09:20.551Z,13.88
2023-05-08T17:13:23.427Z,16.45
2023-05-08T17:17:26.228Z,17.08
2023-05-08T17:21:32.073Z,15.68
2023-05-08T17:25:35.039Z,14.82
2023-05-08T17:29:37.852Z,14.10
2023-05-08T17:33:40.653Z,14.27
2023-05-08T17:37:44.896Z,16.88
2023-05-08T17:41:47.949Z,13.77
2023-05-08T17:45:50.767Z,15.27
2023-05-08T17:49:53.821Z,15.73
2023-05-08T17:53:57.995Z,18.15
2023-05-08T17:58:00.971Z,12.48
2023-05-08T18:02:03.878Z,16.10
2023-05-08T18:06:06.959Z,14.98
2023-05-08T18:10:12.223Z,17.80
2023-05-08T18:14:15.125Z,13.70
2023-05-08T18:18:17.983Z,17.02
2023-05-08T18:22:20.762Z,22.58
2023-05-08T18:26:24.956Z,15.05
2023-05-08T18:30:27.826Z,16.98
2023-05-08T18:34:31.836Z,18.08
2023-05-08T18:38:34.959Z,19.92
2023-05-08T18:42:39.157Z,17.48
2023-05-08T18:46:42.045Z,20.85
2023-05-08T18:50:44.868Z,18.52
2023-05-08T18:54:47.697Z,20.75
2023-05-08T18:58:51.879Z,19.67
2023-05-08T19:02:54.738Z,17.90
2023-05-08T19:06:57.586Z,21.05
2023-05-08T19:11:00.359Z,21.90
2023-05-08T19:15:04.794Z,21.40
2023-05-08T19:19:07.665Z,19.75
2023-05-08T19:23:10.532Z,18.95
2023-05-08T19:27:13.329Z,19.25
2023-05-08T19:31:17.558Z,17.95
2023-05-08T19:35:21.142Z,18.15
2023-05-08T19:39:23.996Z,17.88
2023-05-08T19:43:26.976Z,23.15
2023-05-08T19:47:31.188Z,18.10
2023-05-08T19:51:34.488Z,19.00
2023-05-08T19:55:37.770Z,20.80
2023-05-08T19:59:40.520Z,17.23
2023-05-08T20:03:44.724Z,19.80
2023-05-08T20:07:47.634Z,24.75
2023-05-08T20:11:50.454Z,19.90
2023-05-08T20:16:16.030Z,18.98
2023-05-08T20:20:20.423Z,19.75
2023-05-08T20:24:23.381Z,18.63
2023-05-08T20:28:26.383Z,20.35
2023-05-08T20:32:29.448Z,22.40
2023-05-08T20:36:33.917Z,21.23
2023-05-08T20:40:37.284Z,24.02
2023-05-08T20:44:40.321Z,21.58
2023-05-08T20:48:43.776Z,18.75
2023-05-08T20:52:48.136Z,23.23
2023-05-08T20:56:51.154Z,21.08
2023-05-08T21:00:54.238Z,21.50
2023-05-08T21:04:57.274Z,26.15
2023-05-08T21:09:01.617Z,21.48
2023-05-08T21:13:05.430Z,23.27
2023-05-08T21:17:08.500Z,31.05
2023-05-08T21:21:19.318Z,28.27
2023-05-08T21:25:23.872Z,27.90
2023-05-08T21:29:26.962Z,29.30
2023-05-08T21:33:30.409Z,30.42
2023-05-08T21:37:33.439Z,27.58
2023-05-08T21:41:37.808Z,28.70
2023-05-08T21:45:40.771Z,25.17
2023-05-08T21:49:43.792Z,27.88
2023-05-08T21:53:46.802Z,28.17
2023-05-08T21:57:51.219Z,32.35
2023-05-08T22:01:54.415Z,26.33
2023-05-08T22:05:57.459Z,34.30
2023-05-08T22:10:00.683Z,27.27
2023-05-08T22:14:05.089Z,28.58
2023-05-08T22:18:08.186Z,27.08
2023-05-08T22:22:11.159Z,30.55
2023-05-08T22:26:14.202Z,28.73
2023-05-08T22:30:18.575Z,30.52
2023-05-08T22:34:21.552Z,31.88
2023-05-08T22:38:24.469Z,26.67
2023-05-08T22:42:27.540Z,18.52
2023-05-08T22:46:33.688Z,19.33
2023-05-08T22:50:36.929Z,22.45
2023-05-08T22:54:39.885Z,20.80
2023-05-08T22:58:42.865Z,21.38
2023-05-08T23:02:47.290Z,22.50
2023-05-08T23:06:50.300Z,21.52
2023-05-08T23:10:53.335Z,31.00
2023-05-08T23:14:56.356Z,27.23
2023-05-08T23:19:00.597Z,30.52
2023-05-08T23:23:03.437Z,25.20
2023-05-08T23:27:06.293Z,25.20
2023-05-08T23:31:09.128Z,23.13
2023-05-08T23:35:13.697Z,26.05
2023-05-08T23:39:16.678Z,25.70
2023-05-08T23:43:19.537Z,34.28
2023-05-08T23:47:22.530Z,23.50
2023-05-08T23:51:26.710Z,25.98
2023-05-08T23:55:31.143Z,27.38
2023-05-08T23:59:33.935Z,29.45
